DLH1960 EDDL-EDDH
Flight info
| Callsign | DLH1960 |
|---|---|
| Flight time | 0h 55m |
| Altitude | 19000 |
| Route | MEVEL4H MEVEL DCT EVDAL DCT BASUM DCT RIBSO RIBSO3P |
| Aircraft | CONI/M-SDE1FGHIRWXY/S |
Departure
| Time | 2026-05-04 19:43 |
|---|---|
| Airport | Düsseldorf Airport (EDDL) |
Arrival
| Time | 2026-05-04 20:39 |
|---|---|
| Airport | Hamburg Helmut Schmidt Airport (EDDH) |
| Time | Latitude | Longitude | Altitude | Speed | Heading |
|---|---|---|---|---|---|
| 2026-05-04 18:35 | 51.27608 | 6.76197 | 125 ft | 0 kts | 44° |
| 2026-05-04 19:18 | 51.27592 | 6.76171 | 131 ft | 4 kts | 45° |
| 2026-05-04 19:18 | 51.27576 | 6.76146 | 132 ft | 3 kts | 45° |
| 2026-05-04 19:18 | 51.27555 | 6.76122 | 132 ft | 4 kts | 20° |
| 2026-05-04 19:18 | 51.27529 | 6.76119 | 131 ft | 4 kts | 342° |
| 2026-05-04 19:19 | 51.27522 | 6.76124 | 131 ft | 0 kts | 333° |
| 2026-05-04 19:25 | 51.27534 | 6.76115 | 131 ft | 5 kts | 333° |
| 2026-05-04 19:25 | 51.27591 | 6.76072 | 132 ft | 13 kts | 338° |
| 2026-05-04 19:25 | 51.27690 | 6.76042 | 131 ft | 17 kts | 1° |
| 2026-05-04 19:26 | 51.27814 | 6.76044 | 129 ft | 16 kts | 2° |
| 2026-05-04 19:26 | 51.27904 | 6.76049 | 129 ft | 13 kts | 1° |
| 2026-05-04 19:26 | 51.27959 | 6.76049 | 129 ft | 4 kts | 359° |
| 2026-05-04 19:26 | 51.27961 | 6.76049 | 129 ft | 0 kts | 358° |
| 2026-05-04 19:27 | 51.27971 | 6.76048 | 129 ft | 4 kts | 358° |
| 2026-05-04 19:27 | 51.27995 | 6.76048 | 127 ft | 0 kts | 360° |
| 2026-05-04 19:27 | 51.27996 | 6.76048 | 127 ft | 0 kts | 360° |
| 2026-05-04 19:31 | 51.28000 | 6.76048 | 127 ft | 2 kts | 360° |
| 2026-05-04 19:31 | 51.28038 | 6.76048 | 126 ft | 8 kts | 359° |
| 2026-05-04 19:31 | 51.28095 | 6.76045 | 128 ft | 8 kts | 1° |
| 2026-05-04 19:32 | 51.28152 | 6.76084 | 128 ft | 11 kts | 43° |
| 2026-05-04 19:32 | 51.28210 | 6.76189 | 127 ft | 15 kts | 49° |
| 2026-05-04 19:32 | 51.28270 | 6.76320 | 125 ft | 16 kts | 54° |
| 2026-05-04 19:32 | 51.28307 | 6.76397 | 127 ft | 0 kts | 53° |
| 2026-05-04 19:33 | 51.28307 | 6.76398 | 127 ft | 1 kts | 53° |
| 2026-05-04 19:33 | 51.28340 | 6.76467 | 124 ft | 13 kts | 52° |
| 2026-05-04 19:34 | 51.28408 | 6.76608 | 124 ft | 18 kts | 52° |
| 2026-05-04 19:34 | 51.28496 | 6.76793 | 124 ft | 24 kts | 52° |
| 2026-05-04 19:34 | 51.28599 | 6.77011 | 127 ft | 25 kts | 53° |
| 2026-05-04 19:34 | 51.28706 | 6.77236 | 127 ft | 27 kts | 52° |
| 2026-05-04 19:35 | 51.28820 | 6.77474 | 129 ft | 28 kts | 53° |
| 2026-05-04 19:35 | 51.28936 | 6.77715 | 126 ft | 25 kts | 53° |
| 2026-05-04 19:35 | 51.29031 | 6.77915 | 131 ft | 22 kts | 52° |
| 2026-05-04 19:35 | 51.29113 | 6.78085 | 133 ft | 18 kts | 53° |
| 2026-05-04 19:36 | 51.29188 | 6.78244 | 139 ft | 16 kts | 54° |
| 2026-05-04 19:36 | 51.29249 | 6.78378 | 144 ft | 14 kts | 53° |
| 2026-05-04 19:36 | 51.29298 | 6.78482 | 149 ft | 9 kts | 53° |
| 2026-05-04 19:36 | 51.29322 | 6.78527 | 151 ft | 4 kts | 44° |
| 2026-05-04 19:37 | 51.29339 | 6.78550 | 152 ft | 3 kts | 38° |
| 2026-05-04 19:37 | 51.29351 | 6.78563 | 153 ft | 2 kts | 30° |
| 2026-05-04 19:37 | 51.29358 | 6.78568 | 153 ft | 1 kts | 23° |
| 2026-05-04 19:37 | 51.29363 | 6.78570 | 153 ft | 0 kts | 18° |
| 2026-05-04 19:40 | 51.29367 | 6.78572 | 153 ft | 2 kts | 16° |
| 2026-05-04 19:40 | 51.29400 | 6.78574 | 153 ft | 7 kts | 355° |
| 2026-05-04 19:40 | 51.29429 | 6.78570 | 154 ft | 4 kts | 355° |
| 2026-05-04 19:41 | 51.29435 | 6.78569 | 154 ft | 0 kts | 355° |
| 2026-05-04 19:41 | 51.29481 | 6.78561 | 153 ft | 12 kts | 352° |
| 2026-05-04 19:41 | 51.29523 | 6.78470 | 152 ft | 10 kts | 239° |
| 2026-05-04 19:42 | 51.29476 | 6.78373 | 149 ft | 10 kts | 232° |
| 2026-05-04 19:42 | 51.29406 | 6.78219 | 145 ft | 30 kts | 233° |
| 2026-05-04 19:42 | 51.29164 | 6.77712 | 133 ft | 84 kts | 232° |
| 2026-05-04 19:42 | 51.28730 | 6.76808 | 167 ft | 114 kts | 231° |
| 2026-05-04 19:43 | 51.28284 | 6.75852 | 332 ft | 122 kts | 233° |
| 2026-05-04 19:43 | 51.27780 | 6.74731 | 529 ft | 129 kts | 230° |
| 2026-05-04 19:43 | 51.27254 | 6.73496 | 640 ft | 140 kts | 240° |
| 2026-05-04 19:43 | 51.27133 | 6.72060 | 1079 ft | 130 kts | 275° |
| 2026-05-04 19:44 | 51.27555 | 6.70674 | 1098 ft | 160 kts | 305° |
| 2026-05-04 19:44 | 51.28308 | 6.69163 | 1278 ft | 177 kts | 306° |
| 2026-05-04 19:44 | 51.29254 | 6.68038 | 1722 ft | 174 kts | 336° |
| 2026-05-04 19:44 | 51.30319 | 6.67715 | 2700 ft | 129 kts | 0° |
| 2026-05-04 19:45 | 51.31166 | 6.67895 | 3235 ft | 134 kts | 9° |
| 2026-05-04 19:45 | 51.32111 | 6.68135 | 3491 ft | 150 kts | 8° |
| 2026-05-04 19:45 | 51.33268 | 6.68352 | 3407 ft | 187 kts | 4° |
| 2026-05-04 19:45 | 51.34459 | 6.68503 | 4060 ft | 167 kts | 6° |
| 2026-05-04 19:46 | 51.35497 | 6.68741 | 4961 ft | 136 kts | 9° |
| 2026-05-04 19:46 | 51.36407 | 6.68979 | 5469 ft | 137 kts | 7° |
| 2026-05-04 19:46 | 51.37414 | 6.69176 | 5755 ft | 152 kts | 6° |
| 2026-05-04 19:46 | 51.38487 | 6.69381 | 6079 ft | 164 kts | 7° |
| 2026-05-04 19:47 | 51.39710 | 6.69440 | 6180 ft | 187 kts | 0° |
| 2026-05-04 19:47 | 51.40607 | 6.69408 | 6197 ft | 201 kts | 357° |
| 2026-05-04 19:47 | 51.42063 | 6.69234 | 6268 ft | 214 kts | 358° |
| 2026-05-04 19:47 | 51.42948 | 6.69206 | 6414 ft | 215 kts | 359° |
| 2026-05-04 19:48 | 51.44946 | 6.69165 | 6740 ft | 217 kts | 1° |
| 2026-05-04 19:48 | 51.46457 | 6.69252 | 6992 ft | 218 kts | 2° |
| 2026-05-04 19:48 | 51.47984 | 6.69340 | 7241 ft | 220 kts | 3° |
| 2026-05-04 19:48 | 51.48966 | 6.69400 | 7403 ft | 220 kts | 3° |
| 2026-05-04 19:49 | 51.50406 | 6.69490 | 7637 ft | 220 kts | 3° |
| 2026-05-04 19:49 | 51.51927 | 6.69586 | 7890 ft | 220 kts | 3° |
| 2026-05-04 19:49 | 51.53459 | 6.69681 | 8144 ft | 221 kts | 3° |
| 2026-05-04 19:49 | 51.54999 | 6.69783 | 8396 ft | 222 kts | 3° |
| 2026-05-04 19:50 | 51.56542 | 6.69892 | 8653 ft | 223 kts | 4° |
| 2026-05-04 19:50 | 51.58092 | 6.69998 | 8908 ft | 223 kts | 3° |
| 2026-05-04 19:50 | 51.59634 | 6.70127 | 9172 ft | 224 kts | 6° |
| 2026-05-04 19:50 | 51.60906 | 6.70482 | 9391 ft | 223 kts | 15° |
| 2026-05-04 19:51 | 51.62367 | 6.71331 | 9647 ft | 223 kts | 26° |
| 2026-05-04 19:51 | 51.63699 | 6.72597 | 9909 ft | 223 kts | 37° |
| 2026-05-04 19:51 | 51.64810 | 6.74147 | 10140 ft | 224 kts | 46° |
| 2026-05-04 19:51 | 51.65837 | 6.75926 | 10374 ft | 223 kts | 47° |
| 2026-05-04 19:52 | 51.66840 | 6.77651 | 10600 ft | 223 kts | 47° |
| 2026-05-04 19:52 | 51.67909 | 6.79479 | 10836 ft | 224 kts | 48° |
| 2026-05-04 19:52 | 51.68979 | 6.81309 | 11079 ft | 225 kts | 48° |
| 2026-05-04 19:52 | 51.70051 | 6.83146 | 11329 ft | 226 kts | 48° |
| 2026-05-04 19:53 | 51.71053 | 6.85027 | 11579 ft | 226 kts | 53° |
| 2026-05-04 19:53 | 51.71876 | 6.86718 | 11790 ft | 227 kts | 53° |
| 2026-05-04 19:53 | 51.72846 | 6.88701 | 12034 ft | 229 kts | 53° |
| 2026-05-04 19:53 | 51.73843 | 6.90744 | 12224 ft | 233 kts | 53° |
| 2026-05-04 19:54 | 51.74852 | 6.92823 | 12414 ft | 237 kts | 53° |
| 2026-05-04 19:54 | 51.75875 | 6.94931 | 12571 ft | 241 kts | 53° |
| 2026-05-04 19:54 | 51.76917 | 6.97086 | 12698 ft | 246 kts | 53° |
| 2026-05-04 19:54 | 51.77490 | 6.98273 | 12750 ft | 249 kts | 54° |
| 2026-05-04 19:55 | 51.78474 | 7.00317 | 12810 ft | 254 kts | 53° |
| 2026-05-04 19:55 | 51.79566 | 7.02590 | 12865 ft | 258 kts | 54° |
| 2026-05-04 19:55 | 51.80669 | 7.04891 | 12932 ft | 261 kts | 54° |
| 2026-05-04 19:55 | 51.81786 | 7.07227 | 12960 ft | 262 kts | 54° |
| 2026-05-04 19:56 | 51.82894 | 7.09549 | 12957 ft | 260 kts | 54° |
| 2026-05-04 19:56 | 51.83993 | 7.11865 | 12956 ft | 258 kts | 53° |
| 2026-05-04 19:56 | 51.85072 | 7.14148 | 12954 ft | 255 kts | 53° |
| 2026-05-04 19:56 | 51.85754 | 7.15592 | 12958 ft | 254 kts | 53° |
| 2026-05-04 19:57 | 51.86807 | 7.17822 | 12956 ft | 252 kts | 53° |
| 2026-05-04 19:57 | 51.87927 | 7.19993 | 12955 ft | 250 kts | 49° |
| 2026-05-04 19:57 | 51.89065 | 7.22111 | 12955 ft | 249 kts | 50° |
| 2026-05-04 19:57 | 51.90151 | 7.24135 | 12955 ft | 248 kts | 50° |
| 2026-05-04 19:58 | 51.91278 | 7.26241 | 12956 ft | 248 kts | 50° |
| 2026-05-04 19:58 | 51.92234 | 7.28028 | 12957 ft | 247 kts | 50° |
| 2026-05-04 19:58 | 51.93355 | 7.30124 | 12960 ft | 247 kts | 50° |
| 2026-05-04 19:58 | 51.94487 | 7.32247 | 12961 ft | 247 kts | 50° |
| 2026-05-04 19:59 | 51.95224 | 7.33629 | 12961 ft | 247 kts | 50° |
| 2026-05-04 19:59 | 51.96320 | 7.35682 | 12962 ft | 250 kts | 50° |
| 2026-05-04 19:59 | 51.97474 | 7.37840 | 12961 ft | 250 kts | 50° |
| 2026-05-04 19:59 | 51.98614 | 7.39970 | 12961 ft | 250 kts | 50° |
| 2026-05-04 20:00 | 51.99755 | 7.42107 | 12959 ft | 251 kts | 50° |
| 2026-05-04 20:00 | 52.00761 | 7.43988 | 12959 ft | 251 kts | 50° |
| 2026-05-04 20:00 | 52.01905 | 7.46134 | 12962 ft | 251 kts | 50° |
| 2026-05-04 20:00 | 52.02914 | 7.48025 | 12962 ft | 251 kts | 50° |
| 2026-05-04 20:01 | 52.04057 | 7.50167 | 12963 ft | 251 kts | 50° |
| 2026-05-04 20:01 | 52.05197 | 7.52319 | 12963 ft | 251 kts | 50° |
| 2026-05-04 20:01 | 52.06327 | 7.54462 | 12962 ft | 250 kts | 50° |
| 2026-05-04 20:01 | 52.07378 | 7.56456 | 12962 ft | 249 kts | 50° |
| 2026-05-04 20:02 | 52.08506 | 7.58601 | 12963 ft | 249 kts | 50° |
| 2026-05-04 20:02 | 52.09633 | 7.60744 | 12963 ft | 249 kts | 50° |
| 2026-05-04 20:02 | 52.10756 | 7.62881 | 12963 ft | 249 kts | 50° |
| 2026-05-04 20:02 | 52.11905 | 7.64990 | 12963 ft | 249 kts | 46° |
| 2026-05-04 20:03 | 52.13024 | 7.66857 | 12963 ft | 249 kts | 46° |
| 2026-05-04 20:03 | 52.14226 | 7.68878 | 12962 ft | 249 kts | 46° |
| 2026-05-04 20:03 | 52.15378 | 7.70816 | 12962 ft | 249 kts | 46° |
| 2026-05-04 20:03 | 52.16579 | 7.72840 | 12962 ft | 249 kts | 46° |
| 2026-05-04 20:04 | 52.17785 | 7.74869 | 12963 ft | 249 kts | 46° |
| 2026-05-04 20:04 | 52.18987 | 7.76895 | 12963 ft | 249 kts | 46° |
| 2026-05-04 20:04 | 52.20191 | 7.78927 | 12963 ft | 249 kts | 46° |
| 2026-05-04 20:04 | 52.21389 | 7.80947 | 12963 ft | 249 kts | 46° |
| 2026-05-04 20:05 | 52.22581 | 7.82960 | 12965 ft | 249 kts | 46° |
| 2026-05-04 20:05 | 52.23720 | 7.84886 | 12963 ft | 249 kts | 46° |
| 2026-05-04 20:05 | 52.24923 | 7.86917 | 12963 ft | 249 kts | 46° |
| 2026-05-04 20:05 | 52.26139 | 7.88928 | 12962 ft | 248 kts | 41° |
| 2026-05-04 20:06 | 52.27647 | 7.90243 | 12962 ft | 247 kts | 21° |
| 2026-05-04 20:06 | 52.29224 | 7.91346 | 12966 ft | 247 kts | 23° |
| 2026-05-04 20:06 | 52.30607 | 7.92331 | 12967 ft | 247 kts | 22° |
| 2026-05-04 20:06 | 52.32103 | 7.93397 | 12969 ft | 248 kts | 23° |
| 2026-05-04 20:07 | 52.33623 | 7.94507 | 12963 ft | 248 kts | 25° |
| 2026-05-04 20:07 | 52.35202 | 7.95829 | 12963 ft | 248 kts | 27° |
| 2026-05-04 20:07 | 52.36714 | 7.97187 | 12963 ft | 248 kts | 32° |
| 2026-05-04 20:07 | 52.38173 | 7.98722 | 12965 ft | 249 kts | 32° |
| 2026-05-04 20:08 | 52.39632 | 8.00252 | 12968 ft | 249 kts | 33° |
| 2026-05-04 20:08 | 52.41093 | 8.01788 | 12971 ft | 250 kts | 33° |
| 2026-05-04 20:08 | 52.42331 | 8.03091 | 12970 ft | 250 kts | 33° |
| 2026-05-04 20:08 | 52.43715 | 8.04551 | 12971 ft | 250 kts | 33° |
| 2026-05-04 20:09 | 52.45175 | 8.06092 | 12970 ft | 250 kts | 33° |
| 2026-05-04 20:09 | 52.46620 | 8.07619 | 12970 ft | 250 kts | 33° |
| 2026-05-04 20:09 | 52.48037 | 8.09119 | 12970 ft | 250 kts | 33° |
| 2026-05-04 20:09 | 52.49498 | 8.10673 | 12979 ft | 250 kts | 32° |
| 2026-05-04 20:10 | 52.50954 | 8.12243 | 12981 ft | 251 kts | 32° |
| 2026-05-04 20:10 | 52.52386 | 8.13888 | 12974 ft | 251 kts | 42° |
| 2026-05-04 20:10 | 52.53548 | 8.15972 | 12979 ft | 251 kts | 47° |
| 2026-05-04 20:10 | 52.54733 | 8.18089 | 12982 ft | 252 kts | 46° |
| 2026-05-04 20:11 | 52.55916 | 8.20209 | 12979 ft | 252 kts | 47° |
| 2026-05-04 20:11 | 52.57105 | 8.22344 | 12978 ft | 253 kts | 47° |
| 2026-05-04 20:11 | 52.58289 | 8.24476 | 12986 ft | 253 kts | 47° |
| 2026-05-04 20:11 | 52.59471 | 8.26606 | 12984 ft | 253 kts | 47° |
| 2026-05-04 20:12 | 52.60634 | 8.28708 | 12984 ft | 253 kts | 47° |
| 2026-05-04 20:12 | 52.61820 | 8.30854 | 12985 ft | 253 kts | 47° |
| 2026-05-04 20:12 | 52.63002 | 8.32996 | 12985 ft | 253 kts | 47° |
| 2026-05-04 20:12 | 52.64168 | 8.35114 | 12986 ft | 253 kts | 47° |
| 2026-05-04 20:13 | 52.65262 | 8.37102 | 12983 ft | 253 kts | 47° |
| 2026-05-04 20:13 | 52.66444 | 8.39250 | 12987 ft | 253 kts | 47° |
| 2026-05-04 20:13 | 52.67627 | 8.41406 | 12986 ft | 253 kts | 47° |
| 2026-05-04 20:13 | 52.68808 | 8.43562 | 12984 ft | 253 kts | 47° |
| 2026-05-04 20:14 | 52.69990 | 8.45719 | 12981 ft | 253 kts | 47° |
| 2026-05-04 20:14 | 52.71170 | 8.47877 | 12984 ft | 253 kts | 47° |
| 2026-05-04 20:14 | 52.72355 | 8.50040 | 12984 ft | 254 kts | 47° |
| 2026-05-04 20:14 | 52.73541 | 8.52207 | 12986 ft | 255 kts | 47° |
| 2026-05-04 20:15 | 52.74727 | 8.54378 | 12990 ft | 255 kts | 47° |
| 2026-05-04 20:15 | 52.75897 | 8.56520 | 12990 ft | 256 kts | 47° |
| 2026-05-04 20:15 | 52.77086 | 8.58700 | 12987 ft | 256 kts | 47° |
| 2026-05-04 20:15 | 52.78261 | 8.60854 | 12987 ft | 256 kts | 47° |
| 2026-05-04 20:16 | 52.79466 | 8.63067 | 12991 ft | 256 kts | 47° |
| 2026-05-04 20:16 | 52.80640 | 8.65225 | 12991 ft | 256 kts | 47° |
| 2026-05-04 20:16 | 52.81813 | 8.67382 | 12992 ft | 256 kts | 47° |
| 2026-05-04 20:16 | 52.83001 | 8.69568 | 12992 ft | 256 kts | 47° |
| 2026-05-04 20:17 | 52.84192 | 8.71759 | 12993 ft | 256 kts | 47° |
| 2026-05-04 20:17 | 52.85376 | 8.73942 | 12994 ft | 256 kts | 47° |
| 2026-05-04 20:17 | 52.86567 | 8.76137 | 12994 ft | 256 kts | 47° |
| 2026-05-04 20:17 | 52.87753 | 8.78324 | 12994 ft | 255 kts | 47° |
| 2026-05-04 20:18 | 52.88941 | 8.80515 | 12995 ft | 255 kts | 47° |
| 2026-05-04 20:18 | 52.89929 | 8.82340 | 12995 ft | 255 kts | 47° |
| 2026-05-04 20:18 | 52.91086 | 8.84478 | 12996 ft | 256 kts | 47° |
| 2026-05-04 20:18 | 52.92270 | 8.86667 | 12995 ft | 256 kts | 47° |
| 2026-05-04 20:19 | 52.93458 | 8.88870 | 12996 ft | 256 kts | 47° |
| 2026-05-04 20:19 | 52.94634 | 8.91056 | 12995 ft | 257 kts | 47° |
| 2026-05-04 20:19 | 52.95840 | 8.93299 | 12997 ft | 257 kts | 47° |
| 2026-05-04 20:19 | 52.97031 | 8.95518 | 12995 ft | 258 kts | 47° |
| 2026-05-04 20:20 | 52.98223 | 8.97737 | 12998 ft | 258 kts | 47° |
| 2026-05-04 20:20 | 52.99418 | 8.99964 | 12998 ft | 258 kts | 47° |
| 2026-05-04 20:20 | 53.00610 | 9.02190 | 12997 ft | 258 kts | 47° |
| 2026-05-04 20:20 | 53.01806 | 9.04424 | 12999 ft | 259 kts | 47° |
| 2026-05-04 20:21 | 53.03002 | 9.06666 | 12999 ft | 259 kts | 47° |
| 2026-05-04 20:21 | 53.04195 | 9.08906 | 12998 ft | 259 kts | 47° |
| 2026-05-04 20:21 | 53.06568 | 9.13361 | 12996 ft | 259 kts | 47° |
| 2026-05-04 20:22 | 53.07761 | 9.15602 | 12997 ft | 259 kts | 47° |
| 2026-05-04 20:22 | 53.08952 | 9.17841 | 12996 ft | 259 kts | 47° |
| 2026-05-04 20:22 | 53.10145 | 9.20083 | 12989 ft | 259 kts | 48° |
| 2026-05-04 20:22 | 53.11340 | 9.22326 | 12989 ft | 259 kts | 48° |
| 2026-05-04 20:23 | 53.12536 | 9.24574 | 12988 ft | 259 kts | 47° |
| 2026-05-04 20:23 | 53.13731 | 9.26819 | 12987 ft | 259 kts | 48° |
| 2026-05-04 20:23 | 53.14929 | 9.29070 | 12987 ft | 259 kts | 48° |
| 2026-05-04 20:23 | 53.16125 | 9.31317 | 12986 ft | 259 kts | 48° |
| 2026-05-04 20:24 | 53.17321 | 9.33567 | 12989 ft | 259 kts | 48° |
| 2026-05-04 20:24 | 53.18424 | 9.35641 | 12989 ft | 259 kts | 48° |
| 2026-05-04 20:24 | 53.19645 | 9.37937 | 12990 ft | 259 kts | 48° |
| 2026-05-04 20:24 | 53.20845 | 9.40195 | 12989 ft | 259 kts | 48° |
| 2026-05-04 20:25 | 53.22036 | 9.42444 | 12988 ft | 259 kts | 48° |
| 2026-05-04 20:25 | 53.23354 | 9.44494 | 12843 ft | 262 kts | 34° |
| 2026-05-04 20:25 | 53.24918 | 9.45968 | 12569 ft | 254 kts | 20° |
| 2026-05-04 20:25 | 53.26593 | 9.46707 | 12307 ft | 245 kts | 8° |
| 2026-05-04 20:26 | 53.28258 | 9.47107 | 12048 ft | 240 kts | 5° |
| 2026-05-04 20:26 | 53.29874 | 9.47478 | 11799 ft | 236 kts | 5° |
| 2026-05-04 20:26 | 53.31490 | 9.47847 | 11545 ft | 233 kts | 5° |
| 2026-05-04 20:26 | 53.33040 | 9.48451 | 11283 ft | 233 kts | 25° |
| 2026-05-04 20:27 | 53.34205 | 9.50292 | 11038 ft | 233 kts | 60° |
| 2026-05-04 20:27 | 53.34652 | 9.52854 | 10803 ft | 229 kts | 85° |
| 2026-05-04 20:27 | 53.34901 | 9.55476 | 10564 ft | 228 kts | 79° |
| 2026-05-04 20:27 | 53.35282 | 9.58040 | 10322 ft | 227 kts | 77° |
| 2026-05-04 20:28 | 53.35670 | 9.60602 | 10088 ft | 226 kts | 77° |
| 2026-05-04 20:28 | 53.36055 | 9.63142 | 9845 ft | 225 kts | 77° |
| 2026-05-04 20:28 | 53.36438 | 9.65650 | 9582 ft | 225 kts | 77° |
| 2026-05-04 20:28 | 53.36823 | 9.68177 | 9320 ft | 224 kts | 77° |
| 2026-05-04 20:29 | 53.37209 | 9.70707 | 9052 ft | 224 kts | 76° |
| 2026-05-04 20:29 | 53.37594 | 9.73227 | 8792 ft | 223 kts | 76° |
| 2026-05-04 20:29 | 53.37979 | 9.75739 | 8530 ft | 222 kts | 76° |
| 2026-05-04 20:29 | 53.38364 | 9.78239 | 8273 ft | 222 kts | 76° |
| 2026-05-04 20:30 | 53.38750 | 9.80744 | 8024 ft | 221 kts | 76° |
| 2026-05-04 20:30 | 53.39125 | 9.83165 | 7776 ft | 220 kts | 76° |
| 2026-05-04 20:30 | 53.39510 | 9.85640 | 7527 ft | 219 kts | 76° |
| 2026-05-04 20:30 | 53.39894 | 9.88026 | 7320 ft | 215 kts | 75° |
| 2026-05-04 20:31 | 53.40302 | 9.90371 | 6884 ft | 227 kts | 74° |
| 2026-05-04 20:31 | 53.40718 | 9.92748 | 6446 ft | 238 kts | 75° |
| 2026-05-04 20:31 | 53.41194 | 9.95438 | 5989 ft | 243 kts | 75° |
| 2026-05-04 20:31 | 53.41683 | 9.98175 | 5219 ft | 250 kts | 73° |
| 2026-05-04 20:32 | 53.42186 | 10.00932 | 4549 ft | 252 kts | 73° |
| 2026-05-04 20:32 | 53.42694 | 10.03630 | 4351 ft | 233 kts | 72° |
| 2026-05-04 20:32 | 53.43244 | 10.06067 | 4202 ft | 217 kts | 66° |
| 2026-05-04 20:32 | 53.43997 | 10.08062 | 3866 ft | 218 kts | 49° |
| 2026-05-04 20:33 | 53.45165 | 10.09697 | 3349 ft | 221 kts | 30° |
| 2026-05-04 20:33 | 53.46468 | 10.10658 | 2975 ft | 217 kts | 15° |
| 2026-05-04 20:33 | 53.47939 | 10.11022 | 2604 ft | 210 kts | 358° |
| 2026-05-04 20:33 | 53.49356 | 10.10831 | 2407 ft | 202 kts | 349° |
| 2026-05-04 20:34 | 53.50603 | 10.10232 | 2353 ft | 174 kts | 336° |
| 2026-05-04 20:34 | 53.51640 | 10.09464 | 2232 ft | 150 kts | 334° |
| 2026-05-04 20:34 | 53.52540 | 10.08703 | 2006 ft | 140 kts | 332° |
| 2026-05-04 20:34 | 53.53332 | 10.07929 | 1830 ft | 128 kts | 330° |
| 2026-05-04 20:35 | 53.54081 | 10.07181 | 1655 ft | 124 kts | 332° |
| 2026-05-04 20:35 | 53.54835 | 10.06544 | 1484 ft | 120 kts | 334° |
| 2026-05-04 20:35 | 53.55579 | 10.05942 | 1363 ft | 115 kts | 334° |
| 2026-05-04 20:35 | 53.56278 | 10.05379 | 1343 ft | 113 kts | 336° |
| 2026-05-04 20:36 | 53.56769 | 10.04982 | 1237 ft | 118 kts | 335° |
| 2026-05-04 20:36 | 53.57502 | 10.04358 | 1102 ft | 117 kts | 333° |
| 2026-05-04 20:36 | 53.58221 | 10.03753 | 980 ft | 116 kts | 332° |
| 2026-05-04 20:36 | 53.58931 | 10.03131 | 923 ft | 113 kts | 333° |
| 2026-05-04 20:37 | 53.59632 | 10.02546 | 759 ft | 112 kts | 333° |
| 2026-05-04 20:37 | 53.60315 | 10.01960 | 646 ft | 110 kts | 333° |
| 2026-05-04 20:37 | 53.61001 | 10.01368 | 461 ft | 111 kts | 332° |
| 2026-05-04 20:37 | 53.61678 | 10.00781 | 326 ft | 108 kts | 332° |
| 2026-05-04 20:38 | 53.62330 | 10.00229 | 183 ft | 104 kts | 331° |
| 2026-05-04 20:38 | 53.62975 | 9.99674 | 65 ft | 101 kts | 332° |
| 2026-05-04 20:38 | 53.63541 | 9.99170 | 48 ft | 82 kts | 332° |
| 2026-05-04 20:38 | 53.63979 | 9.98793 | 52 ft | 58 kts | 332° |
| 2026-05-04 20:39 | 53.64235 | 9.98570 | 56 ft | 35 kts | 331° |
| 2026-05-04 20:39 | 53.64452 | 9.98394 | 53 ft | 35 kts | 345° |
| 2026-05-04 20:39 | 53.64669 | 9.98392 | 56 ft | 14 kts | 14° |
| 2026-05-04 20:39 | 53.64715 | 9.98456 | 54 ft | 11 kts | 72° |
| 2026-05-04 20:40 | 53.64680 | 9.98517 | 49 ft | 12 kts | 161° |
| 2026-05-04 20:40 | 53.64583 | 9.98598 | 52 ft | 20 kts | 151° |
| 2026-05-04 20:40 | 53.64440 | 9.98724 | 51 ft | 26 kts | 153° |
| 2026-05-04 20:40 | 53.64264 | 9.98875 | 51 ft | 31 kts | 153° |
| 2026-05-04 20:41 | 53.64065 | 9.99049 | 50 ft | 33 kts | 153° |
| 2026-05-04 20:41 | 53.63868 | 9.99220 | 50 ft | 28 kts | 151° |
| 2026-05-04 20:41 | 53.63748 | 9.99384 | 48 ft | 14 kts | 128° |
| 2026-05-04 20:41 | 53.63699 | 9.99491 | 50 ft | 14 kts | 128° |
| 2026-05-04 20:42 | 53.63630 | 9.99648 | 50 ft | 19 kts | 126° |
| 2026-05-04 20:42 | 53.63550 | 9.99843 | 47 ft | 22 kts | 125° |
| 2026-05-04 20:42 | 53.63478 | 10.00010 | 50 ft | 7 kts | 125° |
| 2026-05-04 20:42 | 53.63471 | 10.00026 | 50 ft | 1 kts | 124° |
| 2026-05-04 20:43 | 53.63471 | 10.00027 | 50 ft | 0 kts | 124° |